Time;durP1;ratioP1;P1;durP2;ratioP2;P2;SDS_P1;SDS_P2;PMS_P1;PMS_P2;Temp;Humidity;BMP_temperature;BMP_pressure;BME280_temperature;BME280_humidity;BME280_pressure;Samples;Min_cycle;Max_cycle;Signal;HPM_P1;HPM_P2
2022/01/18 00:00:40;;;;;;;9.77;6.45;;;;;;;3.86;66.85;95120.22;4922158;29;20063;-79
2022/01/18 00:03:05;;;;;;;9.43;5.15;;;;;;;3.85;66.09;95126.34;4919274;29;20040;-78
2022/01/18 00:05:31;;;;;;;6.05;4.15;;;;;;;3.78;66.34;95128.84;4933981;29;20047;-80
2022/01/18 00:07:59;;;;;;;8.48;5.20;;;;;;;3.72;66.43;95121.03;4933382;29;20036;-79
2022/01/18 00:10:28;;;;;;;5.18;4.28;;;;;;;3.69;66.50;95136.84;4903076;29;20038;-80
2022/01/18 00:18:06;;;;;;;6.63;4.47;;;;;;;3.65;65.55;95133.06;4918355;29;20139;-79
2022/01/18 00:23:33;;;;;;;14.05;7.20;;;;;;;3.58;65.67;95156.91;4916741;29;20051;-79
2022/01/18 00:25:59;;;;;;;17.77;9.75;;;;;;;3.56;65.69;95166.56;4914986;29;20035;-78
2022/01/18 00:28:26;;;;;;;19.65;9.90;;;;;;;3.62;65.55;95165.06;4930678;29;20059;-77
2022/01/18 00:38:48;;;;;;;14.13;7.20;;;;;;;3.79;63.37;95160.50;4913569;29;20119;-77
2022/01/18 00:41:21;;;;;;;25.42;11.35;;;;;;;3.79;63.02;95147.66;4897784;29;20591;-78
2022/01/18 00:43:46;;;;;;;20.92;11.57;;;;;;;3.77;62.33;95152.19;4915173;29;20055;-77
2022/01/18 00:46:12;;;;;;;7.07;5.20;;;;;;;3.77;61.53;95157.31;4914882;29;20075;-78
2022/01/18 00:48:38;;;;;;;7.65;5.80;;;;;;;3.69;61.88;95175.41;4913741;29;20032;-77
2022/01/18 00:51:09;;;;;;;15.32;7.07;;;;;;;3.60;61.84;95190.97;4897495;29;20028;-77
2022/01/18 00:53:36;;;;;;;4.53;4.13;;;;;;;3.55;61.99;95190.69;4896994;29;20142;-77
2022/01/18 00:58:31;;;;;;;7.65;4.40;;;;;;;3.58;61.77;95208.34;4914434;29;20072;-79
2022/01/18 01:01:03;;;;;;;5.60;5.10;;;;;;;3.60;61.95;95218.44;4914073;29;20032;-79
2022/01/18 01:03:33;;;;;;;6.28;4.95;;;;;;;3.63;61.96;95230.16;4929531;29;20540;-79
2022/01/18 01:05:58;;;;;;;5.80;4.28;;;;;;;3.65;63.41;95233.34;4914811;29;20706;-78
2022/01/18 01:08:24;;;;;;;5.25;4.10;;;;;;;3.57;64.79;95219.59;4914995;29;20040;-77
2022/01/18 01:10:49;;;;;;;6.05;4.85;;;;;;;3.41;66.53;95229.25;4916103;29;20079;-80
2022/01/18 01:13:15;;;;;;;4.88;4.47;;;;;;;3.34;67.13;95244.59;4917038;29;20129;-80
2022/01/18 01:16:02;;;;;;;5.90;4.93;;;;;;;3.25;68.08;95261.06;4915709;29;20036;-80
2022/01/18 01:34:49;;;;;;;3.58;3.38;;;;;;;2.07;78.57;95317.06;4931494;29;20079;-79
2022/01/18 01:45:28;;;;;;;7.18;4.88;;;;;;;1.79;80.11;95314.94;4916028;29;20050;-80
2022/01/18 01:47:55;;;;;;;5.13;4.63;;;;;;;1.78;81.02;95318.44;4916290;29;20028;-79
2022/01/18 01:50:21;;;;;;;6.95;5.38;;;;;;;1.79;79.04;95317.50;4900313;29;20039;-79
2022/01/18 01:52:48;;;;;;;10.07;4.80;;;;;;;1.82;76.95;95318.13;4915404;29;20036;-79
2022/01/18 01:55:15;;;;;;;5.07;4.50;;;;;;;1.76;75.37;95315.25;4930788;29;20063;-79
2022/01/18 01:58:03;;;;;;;5.30;4.22;;;;;;;1.73;74.63;95310.44;4916155;29;20122;-78
2022/01/18 02:00:29;;;;;;;4.93;4.50;;;;;;;1.73;73.24;95301.97;4928924;29;20036;-79
2022/01/18 02:02:54;;;;;;;3.25;3.03;;;;;;;1.73;70.23;95309.66;4917316;29;20039;-79
2022/01/18 02:05:21;;;;;;;3.53;3.22;;;;;;;1.68;67.54;95322.97;4916192;29;20040;-79
2022/01/18 02:07:47;;;;;;;2.97;2.70;;;;;;;1.61;65.17;95306.63;4916083;29;20051;-79
2022/01/18 02:10:13;;;;;;;3.10;2.80;;;;;;;1.50;63.44;95324.94;4915978;29;20366;-79
2022/01/18 02:12:38;;;;;;;3.58;3.20;;;;;;;1.45;61.83;95325.41;4919691;29;20043;-79
2022/01/18 02:15:12;;;;;;;3.25;2.95;;;;;;;1.41;61.05;95323.34;4903092;29;20046;-79
2022/01/18 02:23:16;;;;;;;5.00;2.85;;;;;;;1.24;57.19;95370.44;4932761;29;20043;-80
2022/01/18 02:25:41;;;;;;;3.88;3.42;;;;;;;1.20;57.07;95375.88;4903720;29;20032;-80
2022/01/18 02:28:07;;;;;;;8.07;4.07;;;;;;;1.22;56.36;95380.03;4919007;29;20047;-79
2022/01/18 02:30:32;;;;;;;5.43;3.33;;;;;;;1.16;56.56;95379.72;4903460;29;20036;-80
2022/01/18 02:32:58;;;;;;;8.18;3.30;;;;;;;1.18;55.22;95375.25;4919102;29;20444;-80
2022/01/18 02:35:23;;;;;;;5.60;4.03;;;;;;;1.18;55.47;95395.72;4935091;29;20051;-80
2022/01/18 02:37:55;;;;;;;4.82;3.53;;;;;;;1.17;54.15;95386.44;4918968;29;20048;-80
2022/01/18 02:40:20;;;;;;;2.97;2.87;;;;;;;1.17;52.99;95396.69;4918568;29;20036;-80
2022/01/18 02:42:56;;;;;;;2.67;2.47;;;;;;;1.14;53.35;95406.47;4919857;29;20051;-78
2022/01/18 02:45:22;;;;;;;2.80;2.60;;;;;;;1.11;52.93;95422.13;4925716;29;20071;-80
2022/01/18 02:47:47;;;;;;;3.42;3.03;;;;;;;1.13;52.32;95436.38;4934930;29;20024;-80
2022/01/18 02:50:13;;;;;;;3.78;3.40;;;;;;;1.11;52.95;95430.59;4935409;29;20071;-80
2022/01/18 02:52:38;;;;;;;3.30;2.97;;;;;;;1.10;51.50;95428.22;4934669;29;20512;-81
2022/01/18 02:55:07;;;;;;;3.08;2.70;;;;;;;1.04;51.79;95432.22;4902697;29;20048;-80
2022/01/18 02:57:41;;;;;;;5.05;3.83;;;;;;;0.99;50.96;95444.69;4903817;29;20035;-80
2022/01/18 03:00:18;;;;;;;5.05;3.75;;;;;;;0.91;51.53;95439.53;4933685;29;20439;-80
2022/01/18 03:05:27;;;;;;;4.53;3.55;;;;;;;0.83;51.01;95448.03;4918395;29;20131;-80
2022/01/18 03:07:53;;;;;;;3.20;2.90;;;;;;;0.75;51.36;95452.28;4918609;29;20043;-80
2022/01/18 03:10:18;;;;;;;5.80;3.80;;;;;;;0.74;51.31;95460.94;4902581;29;20036;-80
2022/01/18 03:12:44;;;;;;;6.05;3.53;;;;;;;0.67;51.80;95465.09;4918449;29;20428;-80
2022/01/18 03:15:10;;;;;;;4.10;3.70;;;;;;;0.63;51.79;95474.00;4919128;29;20039;-80
2022/01/18 03:17:35;;;;;;;4.05;3.72;;;;;;;0.59;51.80;95463.28;4920433;29;20206;-80
2022/01/18 03:20:03;;;;;;;4.63;4.22;;;;;;;0.55;52.38;95465.34;4909351;29;20063;-79
2022/01/18 03:22:28;;;;;;;8.27;3.65;;;;;;;0.54;51.78;95450.94;4902656;29;20389;-79
2022/01/18 03:25:02;;;;;;;3.30;3.08;;;;;;;0.48;51.62;95454.13;4933992;29;20502;-80
2022/01/18 03:30:15;;;;;;;5.13;4.63;;;;;;;0.43;52.12;95464.00;4905275;29;20082;-80
2022/01/18 03:32:40;;;;;;;3.60;3.40;;;;;;;0.43;52.10;95460.66;4903139;29;20040;-80
2022/01/18 03:35:07;;;;;;;6.63;5.03;;;;;;;0.37;52.21;95464.63;4918096;29;20043;-80
2022/01/18 03:37:33;;;;;;;7.97;4.63;;;;;;;0.36;52.36;95467.34;4918502;29;20067;-80
2022/01/18 03:39:58;;;;;;;8.98;4.53;;;;;;;0.32;52.71;95477.06;4901164;29;20051;-79
2022/01/18 03:42:40;;;;;;;3.75;3.45;;;;;;;0.26;53.01;95470.00;4932581;29;20036;-80
2022/01/18 03:45:10;;;;;;;7.00;3.90;;;;;;;0.18;52.47;95469.97;4906837;29;20056;-79
2022/01/18 03:47:36;;;;;;;4.55;4.15;;;;;;;0.20;53.17;95470.63;4914919;29;20083;-80
2022/01/18 03:50:02;;;;;;;4.82;4.35;;;;;;;0.21;52.87;95479.91;4945014;29;20028;-79
2022/01/18 03:52:27;;;;;;;4.28;3.88;;;;;;;0.19;52.13;95481.81;4922950;29;20046;-79
2022/01/18 03:54:54;;;;;;;3.97;3.67;;;;;;;0.22;52.57;95496.84;4918568;29;20028;-80
2022/01/18 03:57:20;;;;;;;5.60;3.47;;;;;;;0.26;52.12;95503.25;4917850;29;20125;-80
2022/01/18 03:59:45;;;;;;;4.63;4.00;;;;;;;0.26;52.34;95490.47;4902361;29;20424;-80
2022/01/18 04:02:14;;;;;;;10.45;3.42;;;;;;;0.24;52.10;95494.94;4919390;29;20400;-81
2022/01/18 04:04:43;;;;;;;4.15;3.72;;;;;;;0.27;51.82;95487.75;4917250;29;20182;-79
2022/01/18 04:07:08;;;;;;;4.00;3.70;;;;;;;0.28;52.33;95494.47;4901855;29;20037;-79
2022/01/18 04:09:34;;;;;;;4.15;3.30;;;;;;;0.29;51.68;95490.16;4918290;29;20697;-79
2022/01/18 04:12:03;;;;;;;14.50;2.88;;;;;;;0.29;51.90;95515.75;4917325;29;20036;-79
2022/01/18 04:14:28;;;;;;;4.28;3.97;;;;;;;0.27;52.28;95531.25;4925499;29;20066;-80
2022/01/18 04:17:10;;;;;;;4.57;4.18;;;;;;;0.27;51.78;95541.47;4918885;29;20570;-80
2022/01/18 04:27:34;;;;;;;3.70;3.35;;;;;;;0.42;51.44;95574.97;4916700;29;20047;-79
2022/01/18 04:30:09;;;;;;;4.55;3.58;;;;;;;0.42;52.01;95582.66;4917999;29;20047;-79
2022/01/18 04:32:34;;;;;;;5.03;3.58;;;;;;;0.41;51.51;95578.50;4933981;29;20102;-80
2022/01/18 04:35:00;;;;;;;4.53;4.05;;;;;;;0.41;51.59;95593.84;4917834;29;20036;-80
2022/01/18 04:37:25;;;;;;;3.95;3.65;;;;;;;0.40;51.32;95589.69;4918751;29;20534;-80
2022/01/18 04:39:51;;;;;;;4.10;3.65;;;;;;;0.44;51.74;95606.34;4920276;29;20538;-79
2022/01/18 04:42:37;;;;;;;5.95;4.43;;;;;;;0.46;51.09;95601.06;4929458;29;20070;-77
2022/01/18 04:50:31;;;;;;;7.00;5.40;;;;;;;0.44;51.08;95623.44;4934735;29;20034;-78
2022/01/18 04:52:57;;;;;;;5.97;4.50;;;;;;;0.44;50.82;95634.47;4934988;29;20032;-78
2022/01/18 04:55:30;;;;;;;4.88;4.15;;;;;;;0.48;50.84;95628.09;4933962;29;20053;-79
2022/01/18 04:57:55;;;;;;;12.52;6.95;;;;;;;0.51;51.28;95640.63;4908461;29;20040;-79
2022/01/18 05:00:21;;;;;;;8.27;5.35;;;;;;;0.53;51.47;95637.91;4899360;29;20127;-77
2022/01/18 05:02:49;;;;;;;6.78;5.32;;;;;;;0.54;50.89;95631.84;4914111;29;20605;-77
2022/01/18 05:05:24;;;;;;;7.93;5.30;;;;;;;0.58;50.60;95636.50;4912330;29;20036;-77
2022/01/18 05:07:53;;;;;;;10.73;5.45;;;;;;;0.53;50.89;95638.72;4928059;29;20047;-75
2022/01/18 05:10:23;;;;;;;11.25;6.50;;;;;;;0.55;51.01;95641.13;4912405;29;20024;-76
2022/01/18 05:12:52;;;;;;;7.93;5.15;;;;;;;0.51;51.07;95655.97;4896472;29;20059;-76
2022/01/18 05:23:18;;;;;;;10.88;6.72;;;;;;;0.63;50.85;95688.97;4915659;29;20088;-81
2022/01/18 05:25:45;;;;;;;7.30;5.05;;;;;;;0.68;50.53;95684.25;4931535;29;20504;-79
2022/01/18 05:28:11;;;;;;;11.85;6.95;;;;;;;0.67;51.03;95691.13;4931275;29;20036;-79
2022/01/18 05:30:36;;;;;;;5.60;4.45;;;;;;;0.60;50.60;95701.13;4931334;29;20039;-79
2022/01/18 05:33:02;;;;;;;4.80;3.25;;;;;;;0.58;50.75;95713.28;4916571;29;20433;-80
2022/01/18 05:35:27;;;;;;;6.80;3.92;;;;;;;0.53;51.37;95723.16;4914956;29;20032;-77
2022/01/18 05:37:53;;;;;;;5.53;4.13;;;;;;;0.60;50.50;95729.28;4913032;29;20032;-78
2022/01/18 05:40:19;;;;;;;6.95;5.00;;;;;;;0.66;51.28;95724.53;4896390;29;20040;-77
2022/01/18 05:42:44;;;;;;;6.03;4.20;;;;;;;0.71;50.96;95732.56;4923343;29;20572;-78
2022/01/18 05:45:10;;;;;;;4.50;4.05;;;;;;;0.72;51.27;95723.94;4913233;29;20047;-79
2022/01/18 05:47:41;;;;;;;6.38;4.63;;;;;;;0.78;50.98;95736.13;4913575;29;20037;-79
2022/01/18 05:50:07;;;;;;;18.00;4.05;;;;;;;0.79;50.82;95733.41;4908669;29;20055;-79
2022/01/18 05:52:33;;;;;;;7.70;5.05;;;;;;;0.76;51.23;95738.03;4936804;29;20051;-83
2022/01/18 05:54:59;;;;;;;6.53;5.90;;;;;;;0.77;50.75;95742.22;4923776;29;20036;-79
2022/01/18 05:57:24;;;;;;;7.75;5.85;;;;;;;0.81;50.68;95749.47;4911545;29;20028;-78
2022/01/18 05:59:50;;;;;;;16.50;8.98;;;;;;;0.88;50.71;95752.22;4912046;29;20040;-77
2022/01/18 06:02:18;;;;;;;26.27;11.50;;;;;;;0.92;50.51;95757.84;4910148;29;20024;-77
2022/01/18 06:07:30;;;;;;;14.15;7.97;;;;;;;1.05;49.72;95760.81;4910915;29;20115;-77
2022/01/18 06:09:56;;;;;;;25.38;10.05;;;;;;;1.09;49.65;95762.94;4926529;29;20040;-77
2022/01/18 06:12:26;;;;;;;18.83;7.85;;;;;;;1.16;49.74;95771.63;4911156;29;20055;-77
2022/01/18 06:14:52;;;;;;;31.75;13.27;;;;;;;1.16;49.60;95784.44;4895754;29;20036;-77
2022/01/18 06:17:17;;;;;;;39.00;16.23;;;;;;;1.23;49.45;95788.97;4927533;29;20044;-76
2022/01/18 06:19:42;;;;;;;21.45;9.88;;;;;;;1.19;49.23;95791.81;4891103;29;20440;-77
2022/01/18 06:22:08;;;;;;;65.38;23.98;;;;;;;1.31;49.69;95799.28;4888424;29;20024;-76
2022/01/18 06:24:33;;;;;;;51.15;18.95;;;;;;;1.37;49.52;95811.47;4887276;29;20028;-77
2022/01/18 06:26:59;;;;;;;59.17;19.63;;;;;;;1.54;48.99;95818.31;4909515;29;20130;-76
2022/01/18 06:29:24;;;;;;;23.98;12.35;;;;;;;1.63;48.74;95812.28;4911329;29;20036;-76
2022/01/18 06:31:49;;;;;;;36.75;17.55;;;;;;;1.79;48.46;95814.94;4911192;29;20029;-77
2022/01/18 06:34:15;;;;;;;47.15;19.50;;;;;;;2.06;47.85;95820.81;4895550;29;20053;-77
2022/01/18 06:36:41;;;;;;;53.78;24.15;;;;;;;2.28;47.44;95822.84;4911419;29;20040;-76
2022/01/18 06:39:07;;;;;;;47.33;21.50;;;;;;;2.59;47.15;95814.56;4895346;29;20036;-77
2022/01/18 06:41:34;;;;;;;34.42;17.23;;;;;;;3.01;45.94;95825.53;4926790;29;20400;-77
2022/01/18 06:44:00;;;;;;;10.02;7.40;;;;;;;3.20;44.82;95810.75;4911760;29;20419;-76
2022/01/18 06:46:27;;;;;;;31.40;15.98;;;;;;;3.32;44.87;95806.91;4887318;29;20537;-77
2022/01/18 06:48:53;;;;;;;21.08;11.50;;;;;;;3.45;44.04;95801.25;4912300;29;20032;-76
2022/01/18 06:51:19;;;;;;;37.35;20.55;;;;;;;3.64;43.72;95811.19;4909848;29;20120;-76
2022/01/18 06:53:48;;;;;;;15.23;9.77;;;;;;;3.90;43.01;95795.50;4910932;29;20044;-76
2022/01/18 06:56:14;;;;;;;23.13;14.35;;;;;;;3.77;43.54;95816.63;4910460;29;20440;-76
2022/01/18 06:58:40;;;;;;;14.77;9.50;;;;;;;3.72;43.51;95805.19;4928782;29;20040;-76
2022/01/18 07:01:06;;;;;;;17.73;11.90;;;;;;;3.70;43.69;95820.81;4914354;29;20393;-76
2022/01/18 07:03:31;;;;;;;20.10;10.55;;;;;;;3.74;43.67;95826.41;4915731;29;20177;-76
2022/01/18 07:05:57;;;;;;;22.15;12.02;;;;;;;3.81;43.11;95827.38;4929982;29;20047;-77
2022/01/18 07:08:22;;;;;;;25.80;13.70;;;;;;;3.72;43.16;95834.31;4914126;29;20036;-76
2022/01/18 07:10:47;;;;;;;21.42;12.57;;;;;;;3.59;43.76;95839.16;4914334;29;20485;-76
2022/01/18 07:13:14;;;;;;;24.85;14.85;;;;;;;3.49;44.16;95839.34;4915529;29;20099;-76
2022/01/18 07:15:40;;;;;;;28.80;14.52;;;;;;;3.25;44.68;95853.00;4914898;29;20051;-77
2022/01/18 07:18:10;;;;;;;19.73;12.00;;;;;;;3.27;45.01;95866.50;4915508;29;20044;-77
2022/01/18 07:20:36;;;;;;;24.48;14.02;;;;;;;3.30;44.86;95867.94;4915687;29;20456;-78
2022/01/18 07:23:02;;;;;;;31.55;17.38;;;;;;;3.35;45.09;95872.59;4897850;29;20036;-76
2022/01/18 07:25:28;;;;;;;11.10;8.13;;;;;;;3.29;44.08;95848.34;4913893;29;20036;-76
2022/01/18 07:27:53;;;;;;;9.35;5.40;;;;;;;3.10;44.99;95884.66;4913810;29;20031;-77
2022/01/18 07:30:19;;;;;;;6.00;4.32;;;;;;;2.79;45.79;95890.38;4914888;29;20099;-76
2022/01/18 07:32:47;;;;;;;22.60;13.73;;;;;;;2.78;46.00;95891.34;4915108;29;20040;-77
2022/01/18 07:35:13;;;;;;;7.90;6.18;;;;;;;2.87;45.90;95884.44;4897401;29;20115;-77
2022/01/18 07:37:38;;;;;;;13.40;7.90;;;;;;;2.86;45.65;95877.69;4897525;29;20123;-76
2022/01/18 07:40:05;;;;;;;10.15;5.90;;;;;;;2.89;46.09;95878.16;4897986;29;20032;-76
2022/01/18 07:42:31;;;;;;;12.60;6.75;;;;;;;2.86;46.27;95868.22;4897909;29;20044;-76
2022/01/18 07:44:56;;;;;;;13.57;8.00;;;;;;;2.80;45.80;95858.59;4914608;29;20032;-76
2022/01/18 07:47:21;;;;;;;13.93;8.00;;;;;;;2.84;46.00;95865.00;4913577;29;20469;-76
2022/01/18 07:49:47;;;;;;;16.13;8.68;;;;;;;2.90;45.96;95882.34;4913409;29;20036;-76
2022/01/18 07:52:13;;;;;;;6.78;4.10;;;;;;;2.91;45.97;95873.69;4913303;29;20127;-76
2022/01/18 07:54:38;;;;;;;8.00;4.68;;;;;;;2.95;46.64;95879.31;4913418;29;20039;-75
2022/01/18 07:57:04;;;;;;;7.30;4.43;;;;;;;2.95;46.39;95887.84;4897660;29;20072;-76
2022/01/18 07:59:29;;;;;;;12.93;7.63;;;;;;;2.88;46.74;95881.69;4913334;29;20420;-76
2022/01/18 08:01:55;;;;;;;12.18;5.30;;;;;;;2.95;46.30;95892.16;4929316;29;20416;-76
2022/01/18 08:04:21;;;;;;;4.78;3.33;;;;;;;2.99;45.78;95893.47;4897460;29;20036;-75
2022/01/18 08:06:46;;;;;;;3.65;3.35;;;;;;;2.92;45.90;95883.00;4896765;29;20036;-75
2022/01/18 08:09:12;;;;;;;3.25;2.90;;;;;;;2.65;46.43;95883.28;4928041;29;20039;-77
2022/01/18 08:11:39;;;;;;;3.15;2.95;;;;;;;2.49;46.93;95896.84;4915261;29;20032;-77
2022/01/18 08:14:05;;;;;;;3.95;3.33;;;;;;;2.22;47.78;95904.75;4913543;29;20032;-77
2022/01/18 08:18:57;;;;;;;9.60;5.80;;;;;;;2.25;47.91;95905.25;4914635;29;20476;-77
2022/01/18 08:21:23;;;;;;;4.70;3.63;;;;;;;2.25;48.06;95912.94;4912912;29;20095;-77
2022/01/18 08:23:48;;;;;;;12.77;4.97;;;;;;;2.25;47.86;95910.38;4914595;29;20575;-77
2022/01/18 08:26:16;;;;;;;11.80;5.25;;;;;;;2.37;47.33;95898.88;4896733;29;20028;-76
2022/01/18 08:28:42;;;;;;;8.35;5.00;;;;;;;2.44;47.23;95914.50;4928412;29;20036;-77
2022/01/18 08:31:07;;;;;;;8.30;6.25;;;;;;;2.59;46.46;95919.81;4912995;29;20939;-76
2022/01/18 08:33:35;;;;;;;4.78;4.22;;;;;;;2.68;46.42;95906.06;4914123;29;20058;-76
2022/01/18 08:36:03;;;;;;;7.75;3.70;;;;;;;2.66;46.04;95906.22;4896369;29;20040;-76
2022/01/18 08:38:33;;;;;;;5.43;3.20;;;;;;;2.55;45.99;95911.63;4912465;29;20044;-76
2022/01/18 08:40:59;;;;;;;5.95;3.78;;;;;;;2.58;45.78;95931.84;4930186;29;20103;-78
2022/01/18 08:43:25;;;;;;;4.72;4.15;;;;;;;2.60;45.97;95924.81;4915456;29;20077;-78
2022/01/18 08:45:53;;;;;;;3.55;3.25;;;;;;;2.60;45.65;95929.13;4916544;29;20512;-78
2022/01/18 08:48:18;;;;;;;5.57;3.70;;;;;;;2.59;45.31;95941.16;4915470;29;20066;-78
2022/01/18 08:50:46;;;;;;;13.57;8.25;;;;;;;2.62;45.69;95932.38;4916694;29;20032;-78
2022/01/18 08:53:12;;;;;;;10.80;7.47;;;;;;;2.47;45.67;95939.03;4932495;29;20032;-78
2022/01/18 08:55:38;;;;;;;15.63;10.27;;;;;;;2.54;46.42;95950.28;4918382;29;20078;-78
2022/01/18 08:58:03;;;;;;;11.73;6.25;;;;;;;2.63;46.50;95944.25;4901008;29;20047;-78
2022/01/18 09:00:29;;;;;;;4.25;3.47;;;;;;;2.69;45.34;95938.47;4924870;29;20043;-78
2022/01/18 09:02:55;;;;;;;3.88;3.50;;;;;;;2.56;46.01;95928.63;4916378;29;20044;-78
2022/01/18 09:05:23;;;;;;;6.75;4.57;;;;;;;2.49;46.36;95962.81;4916230;29;20086;-78
2022/01/18 09:07:51;;;;;;;7.25;5.03;;;;;;;2.63;46.90;95959.66;4916232;29;20024;-78
2022/01/18 09:10:17;;;;;;;9.43;6.55;;;;;;;2.77;45.84;95951.38;4917091;29;20035;-78
2022/01/18 09:12:42;;;;;;;5.03;4.22;;;;;;;2.89;45.52;95964.72;4917140;29;20032;-78
2022/01/18 09:15:09;;;;;;;7.30;6.10;;;;;;;3.03;45.69;95953.84;4916513;29;20040;-78
2022/01/18 09:17:35;;;;;;;9.88;5.85;;;;;;;3.16;44.86;95966.25;4915998;29;20426;-79
2022/01/18 09:20:06;;;;;;;14.60;7.82;;;;;;;3.33;44.97;95967.88;4916623;29;20503;-79
2022/01/18 09:22:35;;;;;;;9.82;6.55;;;;;;;3.37;44.03;95969.16;4916840;29;20036;-78
2022/01/18 09:25:03;;;;;;;7.78;5.57;;;;;;;3.37;44.53;95958.88;4922460;29;20413;-78
2022/01/18 09:27:29;;;;;;;15.30;5.22;;;;;;;3.31;44.84;95962.09;4920750;29;20130;-78
2022/01/18 09:29:54;;;;;;;8.77;3.97;;;;;;;3.26;44.96;95961.78;4921608;29;20032;-78
2022/01/18 09:32:27;;;;;;;7.35;4.53;;;;;;;3.27;45.08;95958.25;4916915;29;20040;-78
2022/01/18 09:34:52;;;;;;;10.45;5.32;;;;;;;3.29;45.27;95951.16;4917088;29;20064;-78
2022/01/18 09:37:18;;;;;;;7.40;4.05;;;;;;;3.24;45.10;95954.19;4914451;29;20076;-78
2022/01/18 09:39:43;;;;;;;16.52;7.88;;;;;;;3.22;45.60;95947.59;4915564;29;20032;-77
2022/01/18 09:42:10;;;;;;;9.18;5.60;;;;;;;3.07;45.09;95932.00;4917419;29;20076;-79
2022/01/18 09:44:35;;;;;;;12.25;5.95;;;;;;;2.88;45.10;95934.84;4900161;29;20152;-79
2022/01/18 09:47:01;;;;;;;7.20;4.30;;;;;;;2.66;45.91;95939.59;4901221;29;20048;-79
2022/01/18 09:49:27;;;;;;;8.57;5.03;;;;;;;2.47;46.31;95928.78;4900462;29;20032;-79
2022/01/18 09:51:52;;;;;;;10.75;5.82;;;;;;;2.40;47.28;95923.44;4932260;29;20047;-79
2022/01/18 09:54:18;;;;;;;5.03;4.00;;;;;;;2.41;46.95;95915.56;4915649;29;20032;-79
2022/01/18 09:56:44;;;;;;;6.85;4.32;;;;;;;2.33;47.23;95917.31;4915493;29;20052;-80
2022/01/18 09:59:09;;;;;;;10.85;3.88;;;;;;;2.24;47.01;95913.09;4919218;29;20480;-79
2022/01/18 10:01:35;;;;;;;9.20;4.80;;;;;;;2.10;47.76;95906.75;4935609;29;20032;-79
2022/01/18 10:04:16;;;;;;;6.47;4.53;;;;;;;2.07;48.55;95932.72;4927271;29;20118;-79
2022/01/18 10:06:42;;;;;;;9.40;4.35;;;;;;;2.08;48.60;95921.50;4900746;29;20040;-79
2022/01/18 10:09:14;;;;;;;10.38;4.90;;;;;;;2.17;48.57;95918.03;4931918;29;20032;-79
2022/01/18 10:12:10;;;;;;;7.15;4.82;;;;;;;2.28;47.78;95899.81;4916159;29;20033;-79
2022/01/18 10:14:50;;;;;;;12.57;3.92;;;;;;;2.33;47.76;95892.47;4915621;29;20037;-79
2022/01/18 10:17:27;;;;;;;12.15;4.30;;;;;;;2.35;47.52;95905.94;4915968;29;20063;-79
2022/01/18 10:19:53;;;;;;;8.38;5.68;;;;;;;2.35;47.20;95905.94;4915989;29;20040;-79
2022/01/18 10:22:23;;;;;;;13.38;4.80;;;;;;;2.39;47.14;95902.09;4915982;29;20099;-80
2022/01/18 10:24:49;;;;;;;7.75;4.32;;;;;;;2.51;46.63;95915.47;4931555;29;20075;-79
2022/01/18 10:27:15;;;;;;;8.13;3.58;;;;;;;2.45;46.71;95915.28;4931778;29;20040;-79
2022/01/18 10:29:44;;;;;;;7.43;3.80;;;;;;;2.41;46.42;95925.84;4918407;29;20032;-79
2022/01/18 10:32:35;;;;;;;10.32;4.80;;;;;;;2.42;46.70;95922.31;4947389;29;20040;-79
2022/01/18 10:37:30;;;;;;;6.65;3.85;;;;;;;2.60;46.46;95919.69;4920280;29;20051;-79
2022/01/18 10:39:57;;;;;;;6.55;3.92;;;;;;;2.62;46.49;95896.44;4920130;29;20024;-79
2022/01/18 10:42:27;;;;;;;9.27;5.72;;;;;;;2.62;46.70;95907.50;4935347;29;20059;-79
2022/01/18 10:45:04;;;;;;;18.02;8.52;;;;;;;2.68;46.91;95913.75;4918410;29;20031;-79
2022/01/18 10:47:30;;;;;;;8.48;6.28;;;;;;;2.68;45.79;95924.03;4925217;29;20048;-79
2022/01/18 10:49:59;;;;;;;12.38;4.90;;;;;;;2.74;46.15;95925.97;4902699;29;20039;-79
2022/01/18 10:52:26;;;;;;;20.77;9.60;;;;;;;2.91;45.43;95937.91;4917838;29;20149;-79
2022/01/18 10:54:58;;;;;;;9.93;4.47;;;;;;;2.93;45.35;95927.50;4918241;29;20036;-80
2022/01/18 10:57:30;;;;;;;3.72;3.53;;;;;;;2.81;44.54;95926.97;4935064;29;20055;-79
2022/01/18 10:59:56;;;;;;;8.80;4.07;;;;;;;2.73;45.10;95924.38;4932591;29;20024;-79
2022/01/18 11:02:22;;;;;;;7.15;4.03;;;;;;;2.62;45.30;95924.66;4919659;29;20251;-79
2022/01/18 11:05:25;;;;;;;13.40;6.13;;;;;;;2.67;45.89;95912.16;4901833;29;20048;-79
2022/01/18 11:07:51;;;;;;;16.48;5.28;;;;;;;2.59;45.75;95932.66;4878287;29;20896;-79
2022/01/18 11:10:18;;;;;;;20.70;4.88;;;;;;;2.58;44.17;95907.94;4914439;29;20293;-79
2022/01/18 11:13:02;;;;;;;8.68;5.47;;;;;;;2.60;44.79;95929.13;4923368;29;20044;-79
2022/01/18 11:15:31;;;;;;;14.02;6.30;;;;;;;2.68;44.93;95926.59;4918579;29;20105;-77
2022/01/18 11:18:03;;;;;;;9.70;5.60;;;;;;;2.71;43.85;95916.81;4921305;29;20048;-79
2022/01/18 11:20:37;;;;;;;16.53;4.10;;;;;;;2.71;43.73;95901.41;4918102;29;20028;-80
2022/01/18 11:23:06;;;;;;;23.02;8.63;;;;;;;2.67;44.27;95910.41;4933926;29;20288;-80
2022/01/18 11:25:32;;;;;;;34.45;13.52;;;;;;;2.74;44.88;95915.69;4916566;29;20059;-80
2022/01/18 11:27:59;;;;;;;10.02;5.03;;;;;;;2.70;44.99;95906.72;4901564;29;20063;-80
2022/01/18 11:30:27;;;;;;;14.05;8.02;;;;;;;2.56;44.63;95920.13;4903789;29;20091;-80
2022/01/18 11:32:53;;;;;;;12.20;7.07;;;;;;;2.50;44.14;95913.06;4900256;29;20043;-80
2022/01/18 11:35:53;;;;;;;19.60;8.27;;;;;;;2.49;43.57;95919.16;4927370;29;20056;-80
2022/01/18 11:38:49;;;;;;;14.98;10.13;;;;;;;2.39;43.21;95932.91;4885612;29;20048;-79
2022/01/18 11:41:21;;;;;;;19.45;8.30;;;;;;;2.40;43.35;95926.00;4922257;29;20069;-79
2022/01/18 11:43:46;;;;;;;15.15;7.43;;;;;;;2.40;43.01;95934.50;4932065;29;20051;-79
2022/01/18 11:46:34;;;;;;;12.32;7.10;;;;;;;2.43;43.73;95925.69;4946812;29;20280;-80
2022/01/18 11:49:04;;;;;;;15.85;8.25;;;;;;;2.52;43.29;95927.34;4913529;29;20031;-80
2022/01/18 11:51:48;;;;;;;14.88;8.25;;;;;;;2.63;43.04;95934.78;4928336;29;20062;-80
2022/01/18 11:54:56;;;;;;;16.48;9.02;;;;;;;2.75;43.14;95927.56;4938330;29;20425;-80
2022/01/18 11:57:21;;;;;;;10.27;6.50;;;;;;;2.86;42.81;95935.00;4919651;29;20075;-79
2022/01/18 11:59:48;;;;;;;17.00;6.85;;;;;;;2.93;42.67;95912.09;4921133;29;20040;-79
2022/01/18 12:02:41;;;;;;;16.95;4.35;;;;;;;2.97;42.41;95921.88;4934484;29;20112;-80
2022/01/18 12:05:19;;;;;;;14.68;6.32;;;;;;;2.96;42.33;95930.53;4933945;29;20025;-80
2022/01/18 12:07:47;;;;;;;10.63;6.00;;;;;;;2.78;41.95;95924.72;4903729;29;20036;-80
2022/01/18 12:10:32;;;;;;;13.43;6.97;;;;;;;2.68;42.14;95911.19;4919982;29;20602;-80
2022/01/18 12:12:59;;;;;;;11.55;6.05;;;;;;;2.51;42.88;95924.94;4919348;29;20163;-80
2022/01/18 12:15:26;;;;;;;9.88;5.65;;;;;;;2.48;43.29;95909.84;4917917;29;20082;-80
2022/01/18 12:18:01;;;;;;;13.95;5.95;;;;;;;2.40;43.48;95929.38;4919500;29;20457;-80
2022/01/18 12:20:42;;;;;;;11.05;5.22;;;;;;;2.34;43.33;95927.44;4919365;29;20496;-80
2022/01/18 12:23:23;;;;;;;10.02;4.78;;;;;;;2.35;43.34;95913.63;4916283;29;20116;-80
2022/01/18 12:26:03;;;;;;;8.02;4.50;;;;;;;2.22;42.97;95926.09;4933284;29;20028;-80
2022/01/18 12:29:07;;;;;;;10.85;5.72;;;;;;;2.25;43.33;95912.13;4917472;29;20082;-80
2022/01/18 12:34:34;;;;;;;12.57;6.10;;;;;;;2.24;43.71;95918.22;4920488;29;20071;-79
2022/01/18 12:37:20;;;;;;;13.80;5.97;;;;;;;2.28;43.30;95914.41;4919359;29;20047;-77
2022/01/18 12:39:54;;;;;;;11.95;6.25;;;;;;;2.22;43.75;95920.94;4913998;29;20028;-76
2022/01/18 12:45:22;;;;;;;11.00;5.05;;;;;;;2.24;43.32;95910.53;4929725;29;20123;-78
2022/01/18 12:47:58;;;;;;;16.83;5.68;;;;;;;2.14;43.60;95923.50;4930799;29;20127;-78
2022/01/18 12:50:32;;;;;;;9.55;4.82;;;;;;;2.21;43.74;95918.53;4914882;29;20033;-78
2022/01/18 12:53:18;;;;;;;9.30;4.35;;;;;;;2.23;44.22;95917.44;4912713;29;20050;-78
2022/01/18 12:56:16;;;;;;;14.68;5.97;;;;;;;2.25;44.46;95922.41;4912143;29;20592;-77
2022/01/18 12:58:45;;;;;;;15.15;9.43;;;;;;;2.37;43.70;95909.16;4910220;29;20079;-78
2022/01/18 13:01:15;;;;;;;14.10;8.23;;;;;;;2.41;43.93;95900.19;4912514;29;20028;-78
2022/01/18 13:03:49;;;;;;;9.70;3.83;;;;;;;2.37;43.16;95882.69;4928564;29;20040;-79
2022/01/18 13:06:26;;;;;;;7.28;4.80;;;;;;;2.29;43.25;95891.16;4913875;29;20028;-78
2022/01/18 13:09:03;;;;;;;11.98;6.07;;;;;;;2.16;43.06;95885.66;4914098;29;20047;-78
2022/01/18 13:11:30;;;;;;;10.55;5.82;;;;;;;2.04;43.28;95881.72;4913560;29;20295;-78
2022/01/18 13:14:02;;;;;;;23.58;10.48;;;;;;;1.98;43.62;95882.34;4899660;29;20444;-78